sensor_id;sensor_type;location;lat;lon;timestamp;temperature;humidity
51011;DHT22;37038;50.182;8.624;2023-05-19T00:01:02;9.80;99.90
51011;DHT22;37038;50.182;8.624;2023-05-19T00:03:53;9.80;99.90
51011;DHT22;37038;50.182;8.624;2023-05-19T00:06:42;9.80;99.90
51011;DHT22;37038;50.182;8.624;2023-05-19T00:09:31;9.80;99.90
51011;DHT22;37038;50.182;8.624;2023-05-19T00:12:19;9.80;99.90
51011;DHT22;37038;50.182;8.624;2023-05-19T00:15:07;9.80;99.90
51011;DHT22;37038;50.182;8.624;2023-05-19T00:17:55;9.90;99.90
51011;DHT22;37038;50.182;8.624;2023-05-19T00:20:43;9.90;99.90
51011;DHT22;37038;50.182;8.624;2023-05-19T00:23:30;9.90;99.90
51011;DHT22;37038;50.182;8.624;2023-05-19T00:26:18;9.80;99.90
51011;DHT22;37038;50.182;8.624;2023-05-19T00:29:06;9.80;99.90
51011;DHT22;37038;50.182;8.624;2023-05-19T00:31:55;9.70;99.90
51011;DHT22;37038;50.182;8.624;2023-05-19T00:34:43;9.70;99.90
51011;DHT22;37038;50.182;8.624;2023-05-19T00:37:30;9.70;99.90
51011;DHT22;37038;50.182;8.624;2023-05-19T00:40:18;9.70;99.90
51011;DHT22;37038;50.182;8.624;2023-05-19T00:43:06;9.60;99.90
51011;DHT22;37038;50.182;8.624;2023-05-19T00:45:55;9.60;99.90
51011;DHT22;37038;50.182;8.624;2023-05-19T00:48:43;9.50;99.90
51011;DHT22;37038;50.182;8.624;2023-05-19T00:51:34;9.30;99.90
51011;DHT22;37038;50.182;8.624;2023-05-19T00:54:23;9.20;99.90
51011;DHT22;37038;50.182;8.624;2023-05-19T00:57:12;9.40;99.90
51011;DHT22;37038;50.182;8.624;2023-05-19T01:00:02;9.40;99.90
51011;DHT22;37038;50.182;8.624;2023-05-19T01:02:53;9.20;99.90
51011;DHT22;37038;50.182;8.624;2023-05-19T01:05:42;9.10;99.90
51011;DHT22;37038;50.182;8.624;2023-05-19T01:08:35;9.20;99.90
51011;DHT22;37038;50.182;8.624;2023-05-19T01:11:23;9.00;99.90
51011;DHT22;37038;50.182;8.624;2023-05-19T01:14:11;8.90;99.90
51011;DHT22;37038;50.182;8.624;2023-05-19T01:17:08;8.80;99.90
51011;DHT22;37038;50.182;8.624;2023-05-19T01:20:00;8.70;99.90
51011;DHT22;37038;50.182;8.624;2023-05-19T01:30:07;8.60;99.90
51011;DHT22;37038;50.182;8.624;2023-05-19T01:33:01;8.60;99.90
51011;DHT22;37038;50.182;8.624;2023-05-19T01:35:50;8.70;99.90
51011;DHT22;37038;50.182;8.624;2023-05-19T01:38:38;8.60;99.90
51011;DHT22;37038;50.182;8.624;2023-05-19T01:41:26;8.60;99.90
51011;DHT22;37038;50.182;8.624;2023-05-19T01:44:15;8.70;99.90
51011;DHT22;37038;50.182;8.624;2023-05-19T01:47:03;8.50;99.90
51011;DHT22;37038;50.182;8.624;2023-05-19T01:49:51;8.40;99.90
51011;DHT22;37038;50.182;8.624;2023-05-19T01:52:39;8.30;99.90
51011;DHT22;37038;50.182;8.624;2023-05-19T01:55:27;8.30;99.90
51011;DHT22;37038;50.182;8.624;2023-05-19T01:58:44;8.30;99.90
51011;DHT22;37038;50.182;8.624;2023-05-19T02:01:53;8.30;99.90
51011;DHT22;37038;50.182;8.624;2023-05-19T02:04:50;8.30;99.90
51011;DHT22;37038;50.182;8.624;2023-05-19T02:07:54;8.20;99.90
51011;DHT22;37038;50.182;8.624;2023-05-19T02:10:56;8.10;99.90
51011;DHT22;37038;50.182;8.624;2023-05-19T02:13:48;8.10;99.90
51011;DHT22;37038;50.182;8.624;2023-05-19T02:16:37;8.10;99.90
51011;DHT22;37038;50.182;8.624;2023-05-19T02:19:26;8.10;99.90
51011;DHT22;37038;50.182;8.624;2023-05-19T02:22:15;8.20;99.90
51011;DHT22;37038;50.182;8.624;2023-05-19T02:25:03;8.00;99.90
51011;DHT22;37038;50.182;8.624;2023-05-19T02:27:51;8.10;99.90
51011;DHT22;37038;50.182;8.624;2023-05-19T02:30:42;8.10;99.90
51011;DHT22;37038;50.182;8.624;2023-05-19T02:33:30;8.00;99.90
51011;DHT22;37038;50.182;8.624;2023-05-19T02:36:20;8.00;99.90
51011;DHT22;37038;50.182;8.624;2023-05-19T02:39:09;8.00;99.90
51011;DHT22;37038;50.182;8.624;2023-05-19T02:42:00;7.90;99.90
51011;DHT22;37038;50.182;8.624;2023-05-19T02:44:48;7.90;99.90
51011;DHT22;37038;50.182;8.624;2023-05-19T02:47:36;8.10;99.90
51011;DHT22;37038;50.182;8.624;2023-05-19T02:50:24;8.00;99.90
51011;DHT22;37038;50.182;8.624;2023-05-19T02:53:12;8.00;99.90
51011;DHT22;37038;50.182;8.624;2023-05-19T02:56:00;7.90;99.90
51011;DHT22;37038;50.182;8.624;2023-05-19T02:58:48;8.00;99.90
51011;DHT22;37038;50.182;8.624;2023-05-19T03:01:39;7.90;99.90
51011;DHT22;37038;50.182;8.624;2023-05-19T03:04:28;8.00;99.90
51011;DHT22;37038;50.182;8.624;2023-05-19T03:07:16;7.90;99.90
51011;DHT22;37038;50.182;8.624;2023-05-19T03:10:04;7.90;99.90
51011;DHT22;37038;50.182;8.624;2023-05-19T03:12:53;7.90;99.90
51011;DHT22;37038;50.182;8.624;2023-05-19T03:15:40;7.90;99.90
51011;DHT22;37038;50.182;8.624;2023-05-19T03:18:29;7.90;99.90
51011;DHT22;37038;50.182;8.624;2023-05-19T03:21:17;7.80;99.90
51011;DHT22;37038;50.182;8.624;2023-05-19T03:24:04;7.90;99.90
51011;DHT22;37038;50.182;8.624;2023-05-19T03:26:53;7.80;99.90
51011;DHT22;37038;50.182;8.624;2023-05-19T03:29:40;7.80;99.90
51011;DHT22;37038;50.182;8.624;2023-05-19T03:32:28;7.70;99.90
51011;DHT22;37038;50.182;8.624;2023-05-19T03:35:16;7.80;99.90
51011;DHT22;37038;50.182;8.624;2023-05-19T03:38:04;7.80;99.90
51011;DHT22;37038;50.182;8.624;2023-05-19T03:40:52;7.70;99.90
51011;DHT22;37038;50.182;8.624;2023-05-19T03:43:40;7.60;99.90
51011;DHT22;37038;50.182;8.624;2023-05-19T03:46:28;7.70;99.90
51011;DHT22;37038;50.182;8.624;2023-05-19T03:49:16;7.80;99.90
51011;DHT22;37038;50.182;8.624;2023-05-19T03:52:04;7.80;99.90
51011;DHT22;37038;50.182;8.624;2023-05-19T03:54:52;7.90;99.90
51011;DHT22;37038;50.182;8.624;2023-05-19T03:57:40;7.90;99.90
51011;DHT22;37038;50.182;8.624;2023-05-19T04:00:28;8.00;99.90
51011;DHT22;37038;50.182;8.624;2023-05-19T04:03:15;8.10;99.90
51011;DHT22;37038;50.182;8.624;2023-05-19T04:06:04;8.20;99.90
51011;DHT22;37038;50.182;8.624;2023-05-19T04:08:51;8.60;99.90
51011;DHT22;37038;50.182;8.624;2023-05-19T04:11:40;9.00;99.90
51011;DHT22;37038;50.182;8.624;2023-05-19T04:14:30;9.40;99.90
51011;DHT22;37038;50.182;8.624;2023-05-19T04:17:18;9.50;99.90
51011;DHT22;37038;50.182;8.624;2023-05-19T04:20:07;9.90;99.90
51011;DHT22;37038;50.182;8.624;2023-05-19T04:22:54;10.40;99.90
51011;DHT22;37038;50.182;8.624;2023-05-19T04:25:42;10.50;99.90
51011;DHT22;37038;50.182;8.624;2023-05-19T04:28:30;10.30;99.90
51011;DHT22;37038;50.182;8.624;2023-05-19T04:31:19;10.30;99.90
51011;DHT22;37038;50.182;8.624;2023-05-19T04:34:11;10.20;99.90
51011;DHT22;37038;50.182;8.624;2023-05-19T04:37:00;10.50;99.90
51011;DHT22;37038;50.182;8.624;2023-05-19T04:39:48;10.50;99.90
51011;DHT22;37038;50.182;8.624;2023-05-19T04:42:36;10.60;99.90
51011;DHT22;37038;50.182;8.624;2023-05-19T04:45:24;10.90;99.90
51011;DHT22;37038;50.182;8.624;2023-05-19T04:48:12;11.10;99.90
51011;DHT22;37038;50.182;8.624;2023-05-19T04:51:02;11.60;99.90
51011;DHT22;37038;50.182;8.624;2023-05-19T04:53:49;11.70;99.90
51011;DHT22;37038;50.182;8.624;2023-05-19T04:56:38;11.80;99.90
51011;DHT22;37038;50.182;8.624;2023-05-19T04:59:26;12.10;99.90
51011;DHT22;37038;50.182;8.624;2023-05-19T05:02:14;12.60;99.90
51011;DHT22;37038;50.182;8.624;2023-05-19T05:05:05;12.80;99.90
51011;DHT22;37038;50.182;8.624;2023-05-19T05:07:53;13.00;99.90
51011;DHT22;37038;50.182;8.624;2023-05-19T05:10:41;13.10;99.90
51011;DHT22;37038;50.182;8.624;2023-05-19T05:13:29;12.90;99.90
51011;DHT22;37038;50.182;8.624;2023-05-19T05:16:16;12.80;99.90
51011;DHT22;37038;50.182;8.624;2023-05-19T05:19:05;12.80;99.90
51011;DHT22;37038;50.182;8.624;2023-05-19T05:21:53;13.20;99.90
51011;DHT22;37038;50.182;8.624;2023-05-19T05:24:41;13.50;99.90
51011;DHT22;37038;50.182;8.624;2023-05-19T05:27:28;14.00;99.90
51011;DHT22;37038;50.182;8.624;2023-05-19T05:30:16;13.90;99.90
51011;DHT22;37038;50.182;8.624;2023-05-19T05:33:04;14.10;99.90
51011;DHT22;37038;50.182;8.624;2023-05-19T05:35:52;14.60;99.90
51011;DHT22;37038;50.182;8.624;2023-05-19T05:38:40;14.90;99.90
51011;DHT22;37038;50.182;8.624;2023-05-19T05:41:28;15.40;99.90
51011;DHT22;37038;50.182;8.624;2023-05-19T05:44:21;15.90;99.90
51011;DHT22;37038;50.182;8.624;2023-05-19T05:47:09;16.30;99.90
51011;DHT22;37038;50.182;8.624;2023-05-19T05:49:58;17.40;99.90
51011;DHT22;37038;50.182;8.624;2023-05-19T05:52:47;18.20;97.50
51011;DHT22;37038;50.182;8.624;2023-05-19T05:55:35;18.50;95.30
51011;DHT22;37038;50.182;8.624;2023-05-19T05:58:23;19.00;94.10
51011;DHT22;37038;50.182;8.624;2023-05-19T06:01:11;19.80;90.80
51011;DHT22;37038;50.182;8.624;2023-05-19T06:03:59;19.90;90.10
51011;DHT22;37038;50.182;8.624;2023-05-19T06:06:47;20.00;85.80
51011;DHT22;37038;50.182;8.624;2023-05-19T06:09:38;20.30;81.50
51011;DHT22;37038;50.182;8.624;2023-05-19T06:12:28;21.00;75.60
51011;DHT22;37038;50.182;8.624;2023-05-19T06:15:16;20.60;69.30
51011;DHT22;37038;50.182;8.624;2023-05-19T06:18:07;20.30;72.10
51011;DHT22;37038;50.182;8.624;2023-05-19T06:20:55;20.20;71.70
51011;DHT22;37038;50.182;8.624;2023-05-19T06:23:49;19.70;74.50
51011;DHT22;37038;50.182;8.624;2023-05-19T06:26:45;19.30;71.90
51011;DHT22;37038;50.182;8.624;2023-05-19T06:29:33;19.20;72.40
51011;DHT22;37038;50.182;8.624;2023-05-19T06:32:23;19.60;71.00
51011;DHT22;37038;50.182;8.624;2023-05-19T06:35:11;20.20;68.10
51011;DHT22;37038;50.182;8.624;2023-05-19T06:37:59;20.00;63.60
51011;DHT22;37038;50.182;8.624;2023-05-19T06:40:49;20.00;64.40
51011;DHT22;37038;50.182;8.624;2023-05-19T06:43:37;20.20;61.20
51011;DHT22;37038;50.182;8.624;2023-05-19T06:46:25;20.70;57.90
51011;DHT22;37038;50.182;8.624;2023-05-19T06:49:15;20.80;55.60
51011;DHT22;37038;50.182;8.624;2023-05-19T06:52:03;20.80;54.40
51011;DHT22;37038;50.182;8.624;2023-05-19T06:54:55;20.60;50.90
51011;DHT22;37038;50.182;8.624;2023-05-19T06:57:50;20.10;52.00
51011;DHT22;37038;50.182;8.624;2023-05-19T07:00:38;20.10;53.00
51011;DHT22;37038;50.182;8.624;2023-05-19T07:03:28;19.80;52.00
51011;DHT22;37038;50.182;8.624;2023-05-19T07:06:21;19.90;52.00
51011;DHT22;37038;50.182;8.624;2023-05-19T07:09:09;20.10;52.30
51011;DHT22;37038;50.182;8.624;2023-05-19T07:12:00;19.60;52.80
51011;DHT22;37038;50.182;8.624;2023-05-19T07:14:52;19.80;51.30
51011;DHT22;37038;50.182;8.624;2023-05-19T07:17:44;19.90;50.20
51011;DHT22;37038;50.182;8.624;2023-05-19T07:20:33;19.40;50.40
51011;DHT22;37038;50.182;8.624;2023-05-19T07:23:27;19.50;50.60
51011;DHT22;37038;50.182;8.624;2023-05-19T07:26:15;19.10;51.50
51011;DHT22;37038;50.182;8.624;2023-05-19T07:29:06;20.20;52.20
51011;DHT22;37038;50.182;8.624;2023-05-19T07:31:56;20.20;50.20
51011;DHT22;37038;50.182;8.624;2023-05-19T07:34:45;20.40;49.30
51011;DHT22;37038;50.182;8.624;2023-05-19T07:37:37;21.60;47.40
51011;DHT22;37038;50.182;8.624;2023-05-19T07:40:28;20.90;49.10
51011;DHT22;37038;50.182;8.624;2023-05-19T07:43:23;22.50;48.30
51011;DHT22;37038;50.182;8.624;2023-05-19T07:46:13;22.10;43.20
51011;DHT22;37038;50.182;8.624;2023-05-19T07:49:06;22.20;44.20
51011;DHT22;37038;50.182;8.624;2023-05-19T07:51:57;22.30;43.60
51011;DHT22;37038;50.182;8.624;2023-05-19T07:54:50;22.00;43.60
51011;DHT22;37038;50.182;8.624;2023-05-19T07:57:37;22.60;42.60
51011;DHT22;37038;50.182;8.624;2023-05-19T08:00:28;21.20;42.10
51011;DHT22;37038;50.182;8.624;2023-05-19T08:03:20;21.00;43.70
51011;DHT22;37038;50.182;8.624;2023-05-19T08:06:10;21.80;42.70
51011;DHT22;37038;50.182;8.624;2023-05-19T08:09:01;22.70;39.40
51011;DHT22;37038;50.182;8.624;2023-05-19T08:11:55;22.70;39.20
51011;DHT22;37038;50.182;8.624;2023-05-19T08:14:49;22.60;38.60
51011;DHT22;37038;50.182;8.624;2023-05-19T08:17:37;23.20;38.40
51011;DHT22;37038;50.182;8.624;2023-05-19T08:20:32;22.40;34.70
51011;DHT22;37038;50.182;8.624;2023-05-19T08:23:25;22.60;38.70
51011;DHT22;37038;50.182;8.624;2023-05-19T08:26:18;23.40;38.10
51011;DHT22;37038;50.182;8.624;2023-05-19T08:29:10;23.50;33.90
51011;DHT22;37038;50.182;8.624;2023-05-19T08:32:02;22.90;33.10
51011;DHT22;37038;50.182;8.624;2023-05-19T08:34:55;23.40;34.00
51011;DHT22;37038;50.182;8.624;2023-05-19T08:37:46;23.90;32.70
51011;DHT22;37038;50.182;8.624;2023-05-19T08:40:47;23.30;30.00
51011;DHT22;37038;50.182;8.624;2023-05-19T08:43:40;24.00;28.50
51011;DHT22;37038;50.182;8.624;2023-05-19T08:46:29;24.70;27.90
51011;DHT22;37038;50.182;8.624;2023-05-19T08:49:27;25.30;26.40
51011;DHT22;37038;50.182;8.624;2023-05-19T08:52:49;25.60;24.20
51011;DHT22;37038;50.182;8.624;2023-05-19T08:55:54;24.50;24.90
51011;DHT22;37038;50.182;8.624;2023-05-19T08:58:53;26.20;23.50
51011;DHT22;37038;50.182;8.624;2023-05-19T09:01:45;25.00;22.00
51011;DHT22;37038;50.182;8.624;2023-05-19T09:04:39;24.50;22.40
51011;DHT22;37038;50.182;8.624;2023-05-19T09:07:31;25.80;24.50
51011;DHT22;37038;50.182;8.624;2023-05-19T09:10:24;26.90;22.10
51011;DHT22;37038;50.182;8.624;2023-05-19T09:13:17;26.10;19.50
51011;DHT22;37038;50.182;8.624;2023-05-19T09:16:07;26.70;21.10
51011;DHT22;37038;50.182;8.624;2023-05-19T09:19:05;26.00;19.80
51011;DHT22;37038;50.182;8.624;2023-05-19T09:22:04;27.00;20.10
51011;DHT22;37038;50.182;8.624;2023-05-19T09:24:59;27.30;17.80
51011;DHT22;37038;50.182;8.624;2023-05-19T09:27:58;27.00;17.80
51011;DHT22;37038;50.182;8.624;2023-05-19T09:31:10;27.60;15.20
51011;DHT22;37038;50.182;8.624;2023-05-19T09:34:10;26.60;14.50
51011;DHT22;37038;50.182;8.624;2023-05-19T09:37:15;26.70;16.20
51011;DHT22;37038;50.182;8.624;2023-05-19T09:40:12;27.20;14.30
51011;DHT22;37038;50.182;8.624;2023-05-19T09:43:09;25.40;15.40
51011;DHT22;37038;50.182;8.624;2023-05-19T09:46:07;24.50;15.50
51011;DHT22;37038;50.182;8.624;2023-05-19T09:49:07;24.40;13.10
51011;DHT22;37038;50.182;8.624;2023-05-19T09:52:02;23.10;15.80
51011;DHT22;37038;50.182;8.624;2023-05-19T09:54:52;23.40;15.20
51011;DHT22;37038;50.182;8.624;2023-05-19T09:57:47;23.40;15.80
51011;DHT22;37038;50.182;8.624;2023-05-19T10:00:36;23.50;15.40
51011;DHT22;37038;50.182;8.624;2023-05-19T10:03:25;23.50;15.80
51011;DHT22;37038;50.182;8.624;2023-05-19T10:06:21;23.70;15.60
51011;DHT22;37038;50.182;8.624;2023-05-19T10:09:12;23.60;19.00
51011;DHT22;37038;50.182;8.624;2023-05-19T10:12:06;23.80;18.30
51011;DHT22;37038;50.182;8.624;2023-05-19T10:14:58;23.70;18.50
51011;DHT22;37038;50.182;8.624;2023-05-19T10:17:49;23.60;15.60
51011;DHT22;37038;50.182;8.624;2023-05-19T10:20:39;23.50;13.00
51011;DHT22;37038;50.182;8.624;2023-05-19T10:23:30;24.10;12.10
51011;DHT22;37038;50.182;8.624;2023-05-19T10:26:31;24.90;11.90
51011;DHT22;37038;50.182;8.624;2023-05-19T10:29:30;25.70;11.70
51011;DHT22;37038;50.182;8.624;2023-05-19T10:32:26;25.80;10.30
51011;DHT22;37038;50.182;8.624;2023-05-19T10:35:53;25.10;9.00
51011;DHT22;37038;50.182;8.624;2023-05-19T10:45:23;25.80;9.40
51011;DHT22;37038;50.182;8.624;2023-05-19T10:48:18;26.90;8.20
51011;DHT22;37038;50.182;8.624;2023-05-19T10:51:13;27.80;8.30
51011;DHT22;37038;50.182;8.624;2023-05-19T10:54:08;26.20;7.90
51011;DHT22;37038;50.182;8.624;2023-05-19T10:57:04;26.40;9.50
51011;DHT22;37038;50.182;8.624;2023-05-19T10:59:56;27.30;7.20
51011;DHT22;37038;50.182;8.624;2023-05-19T11:02:46;28.80;7.30
51011;DHT22;37038;50.182;8.624;2023-05-19T11:05:37;29.60;4.80
51011;DHT22;37038;50.182;8.624;2023-05-19T11:08:33;28.60;3.40
51011;DHT22;37038;50.182;8.624;2023-05-19T11:11:26;28.30;5.60
51011;DHT22;37038;50.182;8.624;2023-05-19T11:14:25;28.70;7.30
51011;DHT22;37038;50.182;8.624;2023-05-19T11:17:17;27.90;5.20
51011;DHT22;37038;50.182;8.624;2023-05-19T11:20:07;28.50;5.90
51011;DHT22;37038;50.182;8.624;2023-05-19T11:23:13;29.10;5.00
51011;DHT22;37038;50.182;8.624;2023-05-19T11:26:07;30.20;5.20
51011;DHT22;37038;50.182;8.624;2023-05-19T11:28:58;30.40;4.30
51011;DHT22;37038;50.182;8.624;2023-05-19T11:31:49;29.70;3.00
51011;DHT22;37038;50.182;8.624;2023-05-19T11:34:42;30.20;4.60
51011;DHT22;37038;50.182;8.624;2023-05-19T11:37:33;29.20;2.00
51011;DHT22;37038;50.182;8.624;2023-05-19T11:40:24;28.30;4.00
51011;DHT22;37038;50.182;8.624;2023-05-19T11:43:14;28.20;2.70
51011;DHT22;37038;50.182;8.624;2023-05-19T11:46:05;28.70;4.50
51011;DHT22;37038;50.182;8.624;2023-05-19T11:48:57;28.80;3.10
51011;DHT22;37038;50.182;8.624;2023-05-19T11:51:47;28.30;3.00
51011;DHT22;37038;50.182;8.624;2023-05-19T11:54:37;28.40;2.70
51011;DHT22;37038;50.182;8.624;2023-05-19T11:57:27;27.30;3.40
51011;DHT22;37038;50.182;8.624;2023-05-19T12:00:16;28.10;3.60
51011;DHT22;37038;50.182;8.624;2023-05-19T12:03:07;28.70;2.90
51011;DHT22;37038;50.182;8.624;2023-05-19T12:05:58;27.60;2.20
51011;DHT22;37038;50.182;8.624;2023-05-19T12:08:49;27.50;7.90
51011;DHT22;37038;50.182;8.624;2023-05-19T12:11:40;28.60;2.20
51011;DHT22;37038;50.182;8.624;2023-05-19T12:14:30;27.60;4.20
51011;DHT22;37038;50.182;8.624;2023-05-19T12:17:22;27.00;4.30
51011;DHT22;37038;50.182;8.624;2023-05-19T12:20:12;26.10;5.00
51011;DHT22;37038;50.182;8.624;2023-05-19T12:23:03;26.80;5.00
51011;DHT22;37038;50.182;8.624;2023-05-19T12:25:53;28.90;4.70
51011;DHT22;37038;50.182;8.624;2023-05-19T12:28:44;27.00;4.80
51011;DHT22;37038;50.182;8.624;2023-05-19T12:31:35;26.90;5.30
51011;DHT22;37038;50.182;8.624;2023-05-19T12:34:30;28.00;5.90
51011;DHT22;37038;50.182;8.624;2023-05-19T12:37:21;28.10;4.40
51011;DHT22;37038;50.182;8.624;2023-05-19T12:40:17;28.60;4.30
51011;DHT22;37038;50.182;8.624;2023-05-19T12:43:07;28.30;4.50
51011;DHT22;37038;50.182;8.624;2023-05-19T12:46:08;27.40;6.40
51011;DHT22;37038;50.182;8.624;2023-05-19T12:49:01;28.20;5.60
51011;DHT22;37038;50.182;8.624;2023-05-19T12:51:53;28.00;3.70
51011;DHT22;37038;50.182;8.624;2023-05-19T12:54:45;26.40;6.00
51011;DHT22;37038;50.182;8.624;2023-05-19T12:57:33;26.10;8.00
51011;DHT22;37038;50.182;8.624;2023-05-19T13:00:25;25.00;7.20
51011;DHT22;37038;50.182;8.624;2023-05-19T13:03:20;26.00;7.90
51011;DHT22;37038;50.182;8.624;2023-05-19T13:06:12;27.80;4.60
51011;DHT22;37038;50.182;8.624;2023-05-19T13:09:02;29.50;4.20
51011;DHT22;37038;50.182;8.624;2023-05-19T13:11:52;27.80;3.10
51011;DHT22;37038;50.182;8.624;2023-05-19T13:14:43;24.90;7.10
51011;DHT22;37038;50.182;8.624;2023-05-19T13:17:32;24.40;8.10
51011;DHT22;37038;50.182;8.624;2023-05-19T13:20:21;25.40;8.20
51011;DHT22;37038;50.182;8.624;2023-05-19T13:23:09;24.90;8.20
51011;DHT22;37038;50.182;8.624;2023-05-19T13:25:57;25.20;7.90
51011;DHT22;37038;50.182;8.624;2023-05-19T13:28:49;24.30;9.60
51011;DHT22;37038;50.182;8.624;2023-05-19T13:31:40;25.80;7.30
51011;DHT22;37038;50.182;8.624;2023-05-19T13:34:29;25.70;6.60
51011;DHT22;37038;50.182;8.624;2023-05-19T13:37:18;27.40;5.50
51011;DHT22;37038;50.182;8.624;2023-05-19T13:40:07;27.90;4.40
51011;DHT22;37038;50.182;8.624;2023-05-19T13:42:58;27.50;6.20
51011;DHT22;37038;50.182;8.624;2023-05-19T13:45:46;26.80;4.90
51011;DHT22;37038;50.182;8.624;2023-05-19T13:48:36;28.60;4.80
51011;DHT22;37038;50.182;8.624;2023-05-19T13:51:26;28.30;3.70
51011;DHT22;37038;50.182;8.624;2023-05-19T13:54:16;29.30;4.20
51011;DHT22;37038;50.182;8.624;2023-05-19T13:57:04;28.70;1.00
51011;DHT22;37038;50.182;8.624;2023-05-19T13:59:55;28.40;1.10
51011;DHT22;37038;50.182;8.624;2023-05-19T14:02:51;28.70;1.60
51011;DHT22;37038;50.182;8.624;2023-05-19T14:05:41;28.70;2.40
51011;DHT22;37038;50.182;8.624;2023-05-19T14:08:32;27.70;4.50
51011;DHT22;37038;50.182;8.624;2023-05-19T14:11:22;27.50;5.20
51011;DHT22;37038;50.182;8.624;2023-05-19T14:14:12;27.80;5.90
51011;DHT22;37038;50.182;8.624;2023-05-19T14:17:02;29.60;5.70
51011;DHT22;37038;50.182;8.624;2023-05-19T14:19:51;28.60;3.00
51011;DHT22;37038;50.182;8.624;2023-05-19T14:22:41;28.60;5.00
51011;DHT22;37038;50.182;8.624;2023-05-19T14:25:30;27.70;5.20
51011;DHT22;37038;50.182;8.624;2023-05-19T14:28:20;26.30;5.00
51011;DHT22;37038;50.182;8.624;2023-05-19T14:31:11;26.10;6.40
51011;DHT22;37038;50.182;8.624;2023-05-19T14:34:00;25.70;6.00
51011;DHT22;37038;50.182;8.624;2023-05-19T14:36:49;26.10;5.30
51011;DHT22;37038;50.182;8.624;2023-05-19T14:39:39;26.30;7.20
51011;DHT22;37038;50.182;8.624;2023-05-19T14:42:27;26.60;7.10
51011;DHT22;37038;50.182;8.624;2023-05-19T14:45:17;26.70;5.20
51011;DHT22;37038;50.182;8.624;2023-05-19T14:48:07;26.90;6.00
51011;DHT22;37038;50.182;8.624;2023-05-19T14:50:59;26.80;5.40
51011;DHT22;37038;50.182;8.624;2023-05-19T14:53:49;26.50;5.30
51011;DHT22;37038;50.182;8.624;2023-05-19T14:56:40;26.70;6.50
51011;DHT22;37038;50.182;8.624;2023-05-19T14:59:30;26.50;7.40
51011;DHT22;37038;50.182;8.624;2023-05-19T15:02:22;26.70;7.80
51011;DHT22;37038;50.182;8.624;2023-05-19T15:05:11;26.10;8.50
51011;DHT22;37038;50.182;8.624;2023-05-19T15:08:02;25.30;8.40
51011;DHT22;37038;50.182;8.624;2023-05-19T15:10:54;25.10;9.30
51011;DHT22;37038;50.182;8.624;2023-05-19T15:13:41;25.20;9.10
51011;DHT22;37038;50.182;8.624;2023-05-19T15:16:29;24.50;8.70
51011;DHT22;37038;50.182;8.624;2023-05-19T15:19:20;23.80;11.10
51011;DHT22;37038;50.182;8.624;2023-05-19T15:22:08;23.80;11.90
51011;DHT22;37038;50.182;8.624;2023-05-19T15:24:56;24.90;11.60
51011;DHT22;37038;50.182;8.624;2023-05-19T15:27:44;24.20;12.40
51011;DHT22;37038;50.182;8.624;2023-05-19T15:30:32;23.30;12.90
51011;DHT22;37038;50.182;8.624;2023-05-19T15:33:21;22.90;13.60
51011;DHT22;37038;50.182;8.624;2023-05-19T15:36:10;23.10;13.90
51011;DHT22;37038;50.182;8.624;2023-05-19T15:39:05;24.30;13.30
51011;DHT22;37038;50.182;8.624;2023-05-19T15:41:56;25.20;11.70
51011;DHT22;37038;50.182;8.624;2023-05-19T15:44:44;24.20;10.60
51011;DHT22;37038;50.182;8.624;2023-05-19T15:47:32;23.20;11.90
51011;DHT22;37038;50.182;8.624;2023-05-19T15:50:24;22.60;12.70
51011;DHT22;37038;50.182;8.624;2023-05-19T15:53:13;22.60;13.20
51011;DHT22;37038;50.182;8.624;2023-05-19T15:56:00;22.50;12.00
51011;DHT22;37038;50.182;8.624;2023-05-19T15:58:51;22.60;13.20
51011;DHT22;37038;50.182;8.624;2023-05-19T16:01:39;22.50;13.10
51011;DHT22;37038;50.182;8.624;2023-05-19T16:04:27;21.60;11.20
51011;DHT22;37038;50.182;8.624;2023-05-19T16:07:14;21.50;11.50
51011;DHT22;37038;50.182;8.624;2023-05-19T16:10:03;21.40;11.70
51011;DHT22;37038;50.182;8.624;2023-05-19T16:12:51;21.50;11.40
51011;DHT22;37038;50.182;8.624;2023-05-19T16:15:39;21.40;9.50
51011;DHT22;37038;50.182;8.624;2023-05-19T16:18:26;21.50;10.40
51011;DHT22;37038;50.182;8.624;2023-05-19T16:21:15;22.00;9.40
51011;DHT22;37038;50.182;8.624;2023-05-19T16:24:03;22.60;9.60
51011;DHT22;37038;50.182;8.624;2023-05-19T16:26:51;22.90;10.00
51011;DHT22;37038;50.182;8.624;2023-05-19T16:29:40;23.10;9.20
51011;DHT22;37038;50.182;8.624;2023-05-19T16:32:30;23.10;8.20
51011;DHT22;37038;50.182;8.624;2023-05-19T16:35:18;23.60;8.70
51011;DHT22;37038;50.182;8.624;2023-05-19T16:38:06;23.70;8.90
51011;DHT22;37038;50.182;8.624;2023-05-19T16:40:54;23.80;9.30
51011;DHT22;37038;50.182;8.624;2023-05-19T16:43:42;24.20;9.10
51011;DHT22;37038;50.182;8.624;2023-05-19T16:46:29;23.70;8.20
51011;DHT22;37038;50.182;8.624;2023-05-19T16:49:18;23.60;7.90
51011;DHT22;37038;50.182;8.624;2023-05-19T16:52:06;23.30;8.20
51011;DHT22;37038;50.182;8.624;2023-05-19T16:54:54;23.30;8.30
51011;DHT22;37038;50.182;8.624;2023-05-19T16:57:42;23.40;7.90
51011;DHT22;37038;50.182;8.624;2023-05-19T17:00:29;23.40;8.60
51011;DHT22;37038;50.182;8.624;2023-05-19T17:03:18;23.40;8.40
51011;DHT22;37038;50.182;8.624;2023-05-19T17:06:05;22.60;9.40
51011;DHT22;37038;50.182;8.624;2023-05-19T17:08:56;22.10;10.40
51011;DHT22;37038;50.182;8.624;2023-05-19T17:11:44;22.40;9.90
51011;DHT22;37038;50.182;8.624;2023-05-19T17:14:32;22.60;9.50
51011;DHT22;37038;50.182;8.624;2023-05-19T17:17:20;21.80;9.20
51011;DHT22;37038;50.182;8.624;2023-05-19T17:20:08;21.30;10.50
51011;DHT22;37038;50.182;8.624;2023-05-19T17:22:56;21.80;10.70
51011;DHT22;37038;50.182;8.624;2023-05-19T17:25:44;22.00;8.30
51011;DHT22;37038;50.182;8.624;2023-05-19T17:28:32;21.90;10.00
51011;DHT22;37038;50.182;8.624;2023-05-19T17:31:20;21.70;9.90
51011;DHT22;37038;50.182;8.624;2023-05-19T17:34:08;21.60;10.40
51011;DHT22;37038;50.182;8.624;2023-05-19T17:36:56;21.60;10.00
51011;DHT22;37038;50.182;8.624;2023-05-19T17:39:44;21.20;9.70
51011;DHT22;37038;50.182;8.624;2023-05-19T17:42:31;21.20;9.40
51011;DHT22;37038;50.182;8.624;2023-05-19T17:45:21;21.30;9.90
51011;DHT22;37038;50.182;8.624;2023-05-19T17:48:09;21.70;10.50
51011;DHT22;37038;50.182;8.624;2023-05-19T17:50:58;21.90;10.60
51011;DHT22;37038;50.182;8.624;2023-05-19T17:53:46;21.80;10.20
51011;DHT22;37038;50.182;8.624;2023-05-19T17:56:40;21.40;10.90
51011;DHT22;37038;50.182;8.624;2023-05-19T17:59:29;21.30;10.90
51011;DHT22;37038;50.182;8.624;2023-05-19T18:02:17;20.90;11.00
51011;DHT22;37038;50.182;8.624;2023-05-19T18:05:06;21.00;12.00
51011;DHT22;37038;50.182;8.624;2023-05-19T18:07:54;20.80;12.60
51011;DHT22;37038;50.182;8.624;2023-05-19T18:10:43;20.50;13.50
51011;DHT22;37038;50.182;8.624;2023-05-19T18:13:32;20.90;13.70
51011;DHT22;37038;50.182;8.624;2023-05-19T18:16:20;20.90;12.40
51011;DHT22;37038;50.182;8.624;2023-05-19T18:19:08;20.70;12.80
51011;DHT22;37038;50.182;8.624;2023-05-19T18:21:56;20.60;13.00